Time;durP1;ratioP1;P1;durP2;ratioP2;P2;SDS_P1;SDS_P2;PMS_P1;PMS_P2;Temp;Humidity;BMP_temperature;BMP_pressure;BME280_temperature;BME280_humidity;BME280_pressure;Samples;Min_cycle;Max_cycle;Signal;HPM_P1;HPM_P2
2022/11/15 00:00:01;;;;;;;0.00;0.00;;;;;;;9.50;100.00;99061.63;6198380;23;20024;-74
2022/11/15 00:02:49;;;;;;;0.00;0.00;;;;;;;9.37;100.00;99052.22;6193206;23;20435;-76
2022/11/15 00:13:32;;;;;;;;;;;;;;;;;;;;;
2022/11/15 00:51:37;;;;;;;0.00;0.00;;;;;;;10.35;100.00;98955.25;5396167;23;18038650;-76
2022/11/15 00:54:21;;;;;;;0.00;0.00;;;;;;;10.40;100.00;98939.56;6108675;23;20155;-74
2022/11/15 00:57:02;;;;;;;0.00;0.00;;;;;;;10.48;100.00;98918.91;6176147;23;20005;-75
2022/11/15 01:03:31;;;;;;;;;;;;;;;;;;;;;
2022/11/15 01:09:53;;;;;;;;;;;;;;;;;;;;;
2022/11/15 01:12:52;;;;;;;;;;;;;;;;;;;;;
2022/11/15 01:15:18;;;;;;;0.00;0.00;;;;;;;10.82;100.00;98880.25;6077721;23;20030;-75
2022/11/15 01:17:43;;;;;;;0.00;0.00;;;;;;;10.82;100.00;98874.78;6029564;23;20026;-80
2022/11/15 01:20:09;;;;;;;0.00;0.00;;;;;;;10.79;100.00;98871.84;6046648;23;20032;-74
2022/11/15 01:22:35;;;;;;;0.00;0.00;;;;;;;10.82;100.00;98887.66;6144735;23;20001;-76
2022/11/15 01:25:09;;;;;;;0.00;0.00;;;;;;;10.73;100.00;98864.88;6171558;23;20332;-77
2022/11/15 01:27:35;;;;;;;0.00;0.00;;;;;;;10.62;100.00;98865.06;6169309;23;20008;-77
2022/11/15 01:30:07;;;;;;;0.00;0.00;;;;;;;10.49;100.00;98849.50;6169927;23;20008;-78
2022/11/15 01:32:38;;;;;;;0.00;0.00;;;;;;;10.45;100.00;98852.03;6145062;23;20001;-77
2022/11/15 01:35:03;;;;;;;0.00;0.00;;;;;;;10.49;100.00;98860.44;6164122;23;19989;-76
2022/11/15 01:37:29;;;;;;;0.00;0.00;;;;;;;10.48;100.00;98864.25;6166088;23;20340;-78
2022/11/15 01:39:54;;;;;;;0.00;0.00;;;;;;;10.42;100.00;98852.63;6140417;23;20420;-77
2022/11/15 01:42:20;;;;;;;0.00;0.00;;;;;;;10.39;100.00;98844.22;6140819;23;20464;-77
2022/11/15 01:44:52;;;;;;;0.00;0.00;;;;;;;10.30;100.00;98836.69;6165668;23;20075;-75
2022/11/15 01:47:24;;;;;;;0.00;0.00;;;;;;;10.30;100.00;98842.16;6187682;23;20024;-78
2022/11/15 01:50:05;;;;;;;0.00;0.00;;;;;;;10.26;100.00;98832.16;6191564;23;20005;-78
2022/11/15 01:52:33;;;;;;;0.00;0.00;;;;;;;10.23;100.00;98819.91;6187157;23;20627;-77
2022/11/15 01:55:06;;;;;;;0.00;0.00;;;;;;;10.17;100.00;98803.94;6220273;23;20441;-76
2022/11/15 01:57:35;;;;;;;0.00;0.00;;;;;;;10.17;100.00;98799.25;6192363;23;20008;-77
2022/11/15 02:00:03;;;;;;;0.00;0.00;;;;;;;10.16;100.00;98792.16;6218636;23;20031;-76
2022/11/15 02:02:28;;;;;;;0.00;0.00;;;;;;;10.09;100.00;98780.84;6194240;23;20099;-77
2022/11/15 02:04:54;;;;;;;0.00;0.00;;;;;;;10.09;100.00;98780.84;6219526;23;19996;-76
2022/11/15 02:07:21;;;;;;;0.00;0.00;;;;;;;10.08;100.00;98776.50;6193005;23;20009;-76
2022/11/15 02:09:48;;;;;;;0.00;0.00;;;;;;;10.09;100.00;98776.19;6192369;23;20739;-76
2022/11/15 02:12:19;;;;;;;0.00;0.00;;;;;;;10.15;100.00;98779.66;6218673;23;20311;-77
2022/11/15 02:14:49;;;;;;;0.00;0.00;;;;;;;10.13;100.00;98768.19;6167980;23;20035;-76
2022/11/15 02:17:32;;;;;;;0.00;0.00;;;;;;;10.12;100.00;98772.06;6219502;23;20010;-75
2022/11/15 02:20:21;;;;;;;0.00;0.00;;;;;;;10.15;100.00;98766.00;6220193;23;20011;-76
2022/11/15 02:23:14;;;;;;;0.00;0.00;;;;;;;10.14;100.00;98767.09;6137071;23;20012;-75
2022/11/15 02:25:58;;;;;;;0.00;0.00;;;;;;;10.13;100.00;98754.53;6194170;23;19992;-76
2022/11/15 02:28:45;;;;;;;0.00;0.00;;;;;;;10.10;100.00;98733.31;6195635;23;20000;-76
2022/11/15 02:31:38;;;;;;;0.00;0.00;;;;;;;10.14;100.00;98734.31;6191307;23;20350;-77
2022/11/15 02:34:21;;;;;;;0.00;0.00;;;;;;;10.10;100.00;98722.38;6195767;23;20019;-76
2022/11/15 02:37:07;;;;;;;1.00;1.00;;;;;;;10.17;100.00;98732.91;6193823;23;20004;-75
2022/11/15 02:39:46;;;;;;;0.00;0.00;;;;;;;10.09;100.00;98709.81;6223541;22;20350;-76
2022/11/15 02:45:13;;;;;;;0.00;0.00;;;;;;;10.07;100.00;98684.75;6248640;23;20315;-75
2022/11/15 02:47:43;;;;;;;0.00;0.00;;;;;;;10.12;100.00;98703.78;6250485;23;20339;-76
2022/11/15 02:50:16;;;;;;;0.00;0.00;;;;;;;10.12;100.00;98696.38;6248603;23;20075;-75
2022/11/15 02:52:56;;;;;;;0.00;0.00;;;;;;;10.13;100.00;98694.44;6247550;23;19999;-77
2022/11/15 02:55:38;;;;;;;0.00;0.00;;;;;;;10.09;100.00;98687.97;6248663;23;20070;-77
2022/11/15 02:58:17;;;;;;;0.00;0.00;;;;;;;10.09;100.00;98682.50;6247562;23;20300;-77
2022/11/15 03:01:26;;;;;;;0.00;0.00;;;;;;;10.11;100.00;98680.31;6247199;23;20034;-76
2022/11/15 03:04:01;;;;;;;0.00;0.00;;;;;;;10.15;100.00;98675.84;6246701;22;20016;-76
2022/11/15 03:06:35;;;;;;;;;;;;;;;10.15;100.00;98664.94;6245951;23;20011;-75
2022/11/15 03:09:03;;;;;;;0.00;0.00;;;;;;;10.16;100.00;98671.19;6244407;23;19904;-75
2022/11/15 03:11:35;;;;;;;0.00;0.00;;;;;;;10.13;100.00;98664.41;6249115;22;20007;-76
2022/11/15 03:14:27;;;;;;;0.00;0.00;;;;;;;10.13;100.00;98667.13;6246056;23;20296;-76
2022/11/15 03:17:11;;;;;;;0.00;0.00;;;;;;;10.16;100.00;98652.88;6247931;22;20080;-78
2022/11/15 03:19:54;;;;;;;0.00;0.00;;;;;;;10.21;100.00;98643.78;6242371;23;20030;-76
2022/11/15 03:22:22;;;;;;;0.00;0.00;;;;;;;10.21;100.00;98647.31;6245156;23;20008;-76
2022/11/15 03:24:54;;;;;;;0.00;0.00;;;;;;;10.21;100.00;98633.66;6241679;23;20066;-75
2022/11/15 03:27:23;;;;;;;0.00;0.00;;;;;;;10.16;100.00;98614.63;6242743;23;20035;-76
2022/11/15 03:29:54;;;;;;;0.00;0.00;;;;;;;10.14;100.00;98619.59;6242726;23;20004;-75
2022/11/15 03:32:25;;;;;;;0.13;0.13;;;;;;;10.24;100.00;98613.91;6246232;23;20449;-75
2022/11/15 03:34:57;;;;;;;0.00;0.00;;;;;;;10.25;100.00;98601.03;6245877;22;20676;-76
2022/11/15 03:37:35;;;;;;;0.00;0.00;;;;;;;10.23;100.00;98595.91;6249459;23;20115;-76
2022/11/15 03:40:02;;;;;;;0.00;0.00;;;;;;;10.27;100.00;98629.69;6244497;23;20008;-76
2022/11/15 03:42:51;;;;;;;0.00;0.00;;;;;;;10.25;100.00;98588.22;6246427;23;20419;-76
2022/11/15 03:45:23;;;;;;;0.00;0.00;;;;;;;10.26;100.00;98573.41;6246988;23;20004;-75
2022/11/15 03:47:54;;;;;;;0.00;0.00;;;;;;;10.28;100.00;98560.28;6244589;22;20003;-75
2022/11/15 03:50:22;;;;;;;0.00;0.00;;;;;;;10.30;100.00;98552.56;6246273;23;20008;-75
2022/11/15 03:52:49;;;;;;;0.00;0.00;;;;;;;10.33;100.00;98570.28;6245891;23;20127;-76
2022/11/15 03:55:19;;;;;;;0.00;0.00;;;;;;;10.33;100.00;98544.88;6247600;22;20056;-74
2022/11/15 03:57:47;;;;;;;0.00;0.00;;;;;;;10.29;100.00;98559.16;6219017;23;20008;-74
2022/11/15 04:00:13;;;;;;;0.00;0.00;;;;;;;10.29;100.00;98540.03;6248155;22;20008;-74
2022/11/15 04:02:38;;;;;;;0.00;0.00;;;;;;;10.31;100.00;98531.53;6217592;23;20457;-75
2022/11/15 04:05:07;;;;;;;0.00;0.00;;;;;;;10.23;100.00;98513.94;6220319;23;20004;-76
2022/11/15 04:07:32;;;;;;;0.00;0.00;;;;;;;10.28;100.00;98508.38;6243854;22;19999;-76
2022/11/15 04:10:05;;;;;;;0.00;0.00;;;;;;;10.24;100.00;98504.63;6248762;23;20550;-74
2022/11/15 04:12:37;;;;;;;0.00;0.00;;;;;;;10.25;100.00;98503.53;6246248;22;20030;-75
2022/11/15 04:15:18;;;;;;;0.00;0.00;;;;;;;10.26;100.00;98510.59;6248300;23;20129;-77
2022/11/15 04:17:49;;;;;;;0.00;0.00;;;;;;;10.29;100.00;98504.53;6247720;22;20004;-78
2022/11/15 04:26:11;;;;;;;0.00;0.00;;;;;;;10.15;100.00;98479.19;6248996;22;20019;-79
2022/11/15 04:29:34;;;;;;;0.00;0.00;;;;;;;10.23;100.00;98492.09;6249362;23;20027;-79
2022/11/15 04:31:26;;;;;;;0.00;0.00;;;;;;;10.15;100.00;98462.81;6249073;23;20000;-79
2022/11/15 04:33:52;;;;;;;0.00;0.00;;;;;;;10.21;100.00;98467.03;6250168;23;20050;-78
2022/11/15 04:39:03;;;;;;;0.00;0.00;;;;;;;10.26;100.00;98469.63;6250803;22;20027;-79
2022/11/15 04:41:30;;;;;;;0.00;0.00;;;;;;;10.21;100.00;98458.03;6196562;23;20012;-78
2022/11/15 04:43:56;;;;;;;0.00;0.00;;;;;;;10.27;100.00;98463.03;6245355;23;20008;-80
2022/11/15 04:46:23;;;;;;;0.00;0.00;;;;;;;10.26;100.00;98458.69;6249066;23;20027;-80
2022/11/15 04:48:51;;;;;;;0.00;0.00;;;;;;;10.28;100.00;98453.72;6248371;22;20008;-79
2022/11/15 04:51:17;;;;;;;0.00;0.00;;;;;;;10.31;100.00;98450.38;6225185;23;20027;-79
2022/11/15 04:53:42;;;;;;;0.00;0.00;;;;;;;10.30;100.00;98445.22;6245913;23;20415;-78
2022/11/15 04:56:08;;;;;;;0.00;0.00;;;;;;;10.37;100.00;98447.56;6247711;23;20101;-78
2022/11/15 04:58:34;;;;;;;0.00;0.00;;;;;;;10.34;100.00;98475.47;6220685;23;20004;-78
2022/11/15 05:01:18;;;;;;;0.00;0.00;;;;;;;10.36;100.00;98440.47;6247757;23;20064;-76
2022/11/15 05:06:31;;;;;;;0.00;0.00;;;;;;;10.37;100.00;98447.56;6248758;23;20505;-76
2022/11/15 05:08:57;;;;;;;0.00;0.00;;;;;;;10.36;100.00;98418.63;6248493;23;20004;-77
2022/11/15 05:11:23;;;;;;;0.00;0.00;;;;;;;10.30;100.00;98405.03;6251184;23;19999;-78
2022/11/15 05:13:49;;;;;;;0.00;0.00;;;;;;;10.34;100.00;98408.00;6251173;22;19996;-77
2022/11/15 05:16:16;;;;;;;0.00;0.00;;;;;;;10.37;100.00;98403.84;6225359;23;20011;-77
2022/11/15 05:18:44;;;;;;;0.00;0.00;;;;;;;10.36;100.00;98402.22;6253162;22;20378;-77
2022/11/15 05:21:13;;;;;;;0.00;0.00;;;;;;;10.34;100.00;98388.06;6222746;22;20066;-76
2022/11/15 05:23:40;;;;;;;0.00;0.00;;;;;;;10.30;100.00;98377.72;6250884;23;20005;-77
2022/11/15 05:26:06;;;;;;;0.00;0.00;;;;;;;10.37;100.00;98392.91;6224660;23;19993;-79
2022/11/15 05:28:32;;;;;;;0.00;0.00;;;;;;;10.37;100.00;98371.06;6251560;23;20011;-79
2022/11/15 05:31:06;;;;;;;0.00;0.00;;;;;;;10.39;100.00;98379.72;6250948;22;19984;-79
2022/11/15 05:33:32;;;;;;;0.00;0.00;;;;;;;10.44;100.00;98371.38;6251612;23;19988;-78
2022/11/15 05:36:12;;;;;;;0.00;0.00;;;;;;;10.46;100.00;98364.47;6223693;23;20229;-78
2022/11/15 05:38:37;;;;;;;0.00;0.00;;;;;;;10.42;100.00;98360.75;6249124;23;20038;-78
2022/11/15 05:41:04;;;;;;;0.00;0.00;;;;;;;10.52;100.00;98370.63;6221537;23;20012;-79
2022/11/15 05:43:34;;;;;;;0.00;0.00;;;;;;;10.53;100.00;98353.13;6250354;22;19988;-77
2022/11/15 05:46:00;;;;;;;0.00;0.00;;;;;;;10.55;100.00;98361.78;6250610;23;20026;-79
2022/11/15 05:48:27;;;;;;;0.00;0.00;;;;;;;10.51;100.00;98328.00;6250500;23;20001;-79
2022/11/15 05:50:52;;;;;;;0.00;0.00;;;;;;;10.61;100.00;98346.06;6225468;23;20008;-79
2022/11/15 05:53:21;;;;;;;0.00;0.00;;;;;;;10.61;100.00;98326.91;6252516;23;20020;-78
2022/11/15 05:55:49;;;;;;;0.00;0.00;;;;;;;10.55;100.00;98318.06;6249332;23;20012;-77
2022/11/15 05:58:15;;;;;;;0.00;0.00;;;;;;;10.64;100.00;98327.09;6228207;23;20443;-78
2022/11/15 06:00:42;;;;;;;0.00;0.00;;;;;;;10.61;100.00;98305.06;6249113;22;20007;-79
2022/11/15 06:03:14;;;;;;;0.00;0.00;;;;;;;10.73;100.00;98323.56;6250435;23;20008;-79
2022/11/15 06:05:56;;;;;;;0.00;0.00;;;;;;;10.75;100.00;98315.88;6247689;23;20030;-78
2022/11/15 06:08:21;;;;;;;0.00;0.00;;;;;;;10.77;100.00;98313.63;6251077;23;20003;-78
2022/11/15 06:10:47;;;;;;;0.00;0.00;;;;;;;10.81;100.00;98309.91;6246437;23;20004;-80
2022/11/15 06:13:12;;;;;;;0.00;0.00;;;;;;;10.77;100.00;98294.47;6254838;22;20008;-80
2022/11/15 06:15:38;;;;;;;0.00;0.00;;;;;;;10.79;100.00;98290.31;6226636;23;20007;-79
2022/11/15 06:18:03;;;;;;;0.00;0.00;;;;;;;10.82;100.00;98299.81;6253034;23;20385;-78
2022/11/15 06:20:29;;;;;;;0.00;0.00;;;;;;;10.84;100.00;98308.47;6225862;23;20062;-77
2022/11/15 06:22:59;;;;;;;0.00;0.00;;;;;;;10.82;100.00;98297.06;6222345;23;20046;-78
2022/11/15 06:25:26;;;;;;;0.00;0.00;;;;;;;10.74;100.00;98271.31;6226089;22;20183;-79
2022/11/15 06:27:54;;;;;;;0.00;0.00;;;;;;;10.85;100.00;98288.22;6248298;23;20000;-79
2022/11/15 06:30:20;;;;;;;0.00;0.00;;;;;;;10.82;100.00;98269.72;6249242;23;20062;-79
2022/11/15 06:32:48;;;;;;;0.00;0.00;;;;;;;10.74;100.00;98260.38;6223602;23;20008;-79
2022/11/15 06:35:14;;;;;;;0.00;0.00;;;;;;;10.83;100.00;98260.38;6226430;23;20024;-79
2022/11/15 06:37:40;;;;;;;0.00;0.00;;;;;;;10.82;100.00;98261.53;6250853;23;19991;-80
2022/11/15 06:40:10;;;;;;;0.00;0.00;;;;;;;10.84;100.00;98259.28;6251731;22;20020;-79
2022/11/15 06:42:45;;;;;;;0.00;0.00;;;;;;;10.93;100.00;98262.81;6254717;22;20066;-82
2022/11/15 06:45:21;;;;;;;;;;;;;;;;;;;;;
2022/11/15 06:47:50;;;;;;;0.00;0.00;;;;;;;10.77;100.00;98231.59;6255146;22;20035;-83
2022/11/15 06:50:18;;;;;;;0.00;0.00;;;;;;;10.79;100.00;98234.81;6251839;23;20004;-83
2022/11/15 06:52:47;;;;;;;0.00;0.00;;;;;;;10.96;100.00;98253.94;6251267;22;20405;-82
2022/11/15 06:55:22;;;;;;;;;;;;;;;;;;;;;
2022/11/15 06:58:04;;;;;;;;;;;;;;;;;;;;;
2022/11/15 07:00:48;;;;;;;0.00;0.00;;;;;;;10.93;100.00;98246.41;6251234;22;20464;-80
2022/11/15 07:03:13;;;;;;;0.00;0.00;;;;;;;10.86;100.00;98224.19;6226173;23;20026;-80
2022/11/15 07:05:39;;;;;;;0.00;0.00;;;;;;;10.89;100.00;98223.53;6221505;22;20150;-80
2022/11/15 07:08:06;;;;;;;0.00;0.00;;;;;;;10.92;100.00;98225.66;6224636;22;20016;-78
2022/11/15 07:10:37;;;;;;;0.00;0.00;;;;;;;10.85;100.00;98208.94;6247699;22;20303;-80
2022/11/15 07:13:02;;;;;;;0.00;0.00;;;;;;;10.87;100.00;98201.19;6200238;23;20106;-78
2022/11/15 07:15:30;;;;;;;0.00;0.00;;;;;;;10.87;100.00;98203.94;6224082;22;20000;-79
2022/11/15 07:17:55;;;;;;;0.00;0.00;;;;;;;10.94;100.00;98209.72;6247840;22;20091;-82
2022/11/15 07:20:23;;;;;;;0.00;0.00;;;;;;;10.92;100.00;98205.69;6223127;23;20062;-85
2022/11/15 07:22:51;;;;;;;0.00;0.00;;;;;;;10.91;100.00;98204.91;6245356;23;20012;-81
2022/11/15 07:25:16;;;;;;;0.00;0.00;;;;;;;10.98;100.00;98191.56;6249196;22;20057;-81
2022/11/15 07:27:54;;;;;;;0.00;0.00;;;;;;;10.92;100.00;98192.84;6220697;23;20008;-81
2022/11/15 07:30:22;;;;;;;0.00;0.00;;;;;;;10.95;100.00;98192.19;6224587;23;20011;-79
2022/11/15 07:32:55;;;;;;;0.00;0.00;;;;;;;10.96;100.00;98180.13;6223659;23;20019;-79
2022/11/15 07:35:20;;;;;;;0.00;0.00;;;;;;;10.88;100.00;98171.91;6250819;22;20008;-79
2022/11/15 07:37:57;;;;;;;0.00;0.00;;;;;;;11.03;100.00;98176.91;6247689;22;20015;-77
2022/11/15 07:40:26;;;;;;;0.00;0.00;;;;;;;11.04;100.00;98180.44;6249273;23;20019;-80
2022/11/15 07:42:55;;;;;;;0.00;0.00;;;;;;;10.97;100.00;98165.31;6247400;22;20039;-82
2022/11/15 07:45:26;;;;;;;0.00;0.00;;;;;;;10.97;100.00;98170.78;6227062;23;20008;-82
2022/11/15 07:47:52;;;;;;;0.00;0.00;;;;;;;11.07;100.00;98174.31;6248120;22;20419;-82
2022/11/15 07:50:20;;;;;;;0.00;0.00;;;;;;;10.96;100.00;98150.03;6222014;23;19996;-81
2022/11/15 07:52:46;;;;;;;0.00;0.00;;;;;;;11.06;100.00;98172.72;6247206;22;20014;-76
2022/11/15 07:55:12;;;;;;;0.00;0.00;;;;;;;11.00;100.00;98158.41;6246814;23;20008;-81
2022/11/15 07:57:39;;;;;;;0.00;0.00;;;;;;;11.02;100.00;98167.09;6222464;23;20012;-78
2022/11/15 08:00:16;;;;;;;0.00;0.00;;;;;;;10.96;100.00;98155.50;6221081;23;20115;-79
2022/11/15 08:02:51;;;;;;;0.00;0.00;;;;;;;11.06;100.00;98161.78;6225047;23;20016;-80
2022/11/15 08:05:20;;;;;;;0.00;0.00;;;;;;;10.90;100.00;98145.88;6222731;23;20008;-80
2022/11/15 08:07:48;;;;;;;0.00;0.00;;;;;;;10.94;100.00;98152.31;6244482;22;20154;-80
2022/11/15 08:10:41;;;;;;;0.00;0.00;;;;;;;11.00;100.00;98148.25;6248864;22;20039;-80
2022/11/15 08:13:19;;;;;;;0.00;0.00;;;;;;;11.00;100.00;98142.78;6248289;23;20366;-80
2022/11/15 08:15:52;;;;;;;0.00;0.00;;;;;;;11.05;100.00;98151.97;6246977;22;20409;-79
2022/11/15 08:18:18;;;;;;;0.00;0.00;;;;;;;11.10;100.00;98151.81;6246676;22;20009;-78
2022/11/15 08:20:43;;;;;;;0.00;0.00;;;;;;;11.11;100.00;98162.44;6217624;23;20016;-80
2022/11/15 08:23:11;;;;;;;0.00;0.00;;;;;;;11.14;100.00;98147.28;6247462;23;20038;-78
2022/11/15 08:26:06;;;;;;;0.00;0.00;;;;;;;11.19;100.00;98144.38;6249584;23;20028;-78
2022/11/15 08:28:32;;;;;;;;;;;;;;;11.20;100.00;98162.41;6247954;23;20035;-79
2022/11/15 08:30:57;;;;;;;0.00;0.00;;;;;;;11.18;100.00;98137.28;6244194;22;19912;-79
2022/11/15 08:33:23;;;;;;;0.00;0.00;;;;;;;11.18;100.00;98142.75;6246894;22;20439;-79
2022/11/15 08:35:48;;;;;;;0.00;0.00;;;;;;;11.21;100.00;98147.56;6225326;22;20012;-79
2022/11/15 08:38:16;;;;;;;0.00;0.00;;;;;;;11.14;100.00;98123.47;6247531;22;20023;-81
2022/11/15 08:40:42;;;;;;;0.00;0.00;;;;;;;11.24;100.00;98152.41;6198410;23;20004;-81
2022/11/15 08:43:07;;;;;;;0.00;0.00;;;;;;;11.22;100.00;98137.47;6222110;22;20020;-80
2022/11/15 08:45:35;;;;;;;0.00;0.00;;;;;;;11.27;100.00;98140.00;6253294;22;20072;-80
2022/11/15 08:48:10;;;;;;;0.00;0.00;;;;;;;11.25;100.00;98150.47;6248516;22;20374;-80
2022/11/15 08:50:38;;;;;;;0.00;0.00;;;;;;;11.21;100.00;98136.63;6248177;22;20004;-79
2022/11/15 08:53:09;;;;;;;0.00;0.00;;;;;;;11.23;100.00;98128.91;6249078;22;20011;-79
2022/11/15 08:55:48;;;;;;;0.00;0.00;;;;;;;11.21;100.00;98113.97;6241334;22;20004;-78
2022/11/15 08:58:14;;;;;;;0.00;0.00;;;;;;;11.21;100.00;98092.06;6251411;22;20425;-78
2022/11/15 09:00:39;;;;;;;0.00;0.00;;;;;;;11.27;100.00;98099.78;6246054;22;20004;-81
2022/11/15 09:03:06;;;;;;;0.00;0.00;;;;;;;11.22;100.00;98094.47;6200336;23;20017;-82
2022/11/15 09:05:32;;;;;;;0.00;0.00;;;;;;;11.25;100.00;98080.16;6245563;22;20050;-82
2022/11/15 09:08:18;;;;;;;0.00;0.00;;;;;;;11.18;100.00;98067.00;6225956;22;20004;-82
2022/11/15 09:10:53;;;;;;;0.00;0.00;;;;;;;11.31;100.00;98094.44;6246484;22;20371;-82
2022/11/15 09:16:07;;;;;;;0.00;0.00;;;;;;;11.26;100.00;98062.59;6249445;22;20079;-80
2022/11/15 09:18:34;;;;;;;0.00;0.00;;;;;;;11.38;100.00;98081.06;6253030;22;20016;-79
2022/11/15 09:21:09;;;;;;;0.00;0.00;;;;;;;11.38;100.00;98085.75;6248786;23;20011;-80
2022/11/15 09:23:35;;;;;;;0.00;0.00;;;;;;;11.35;100.00;98048.88;6254072;22;20015;-79
2022/11/15 09:26:03;;;;;;;0.00;0.00;;;;;;;11.38;100.00;98063.84;6250248;22;20016;-80
2022/11/15 09:28:29;;;;;;;0.00;0.00;;;;;;;11.34;100.00;98050.81;6252296;22;20062;-80
2022/11/15 09:31:08;;;;;;;0.00;0.00;;;;;;;11.31;100.00;98035.06;6249614;23;20011;-81
2022/11/15 09:33:46;;;;;;;0.00;0.00;;;;;;;11.43;100.00;98047.22;6251638;22;20011;-81
2022/11/15 09:36:12;;;;;;;0.00;0.00;;;;;;;11.34;100.00;98039.84;6251075;22;20018;-81
2022/11/15 09:39:21;;;;;;;0.00;0.00;;;;;;;11.44;100.00;98048.84;6251734;22;20013;-81
2022/11/15 09:42:22;;;;;;;0.00;0.00;;;;;;;11.36;100.00;98031.34;6246680;22;20095;-80
2022/11/15 09:45:17;;;;;;;0.00;0.00;;;;;;;11.39;100.00;98010.72;6245902;22;20012;-80
2022/11/15 09:48:04;;;;;;;0.00;0.00;;;;;;;11.47;100.00;98020.81;6248380;22;20261;-78
2022/11/15 09:50:44;;;;;;;0.00;0.00;;;;;;;11.42;100.00;97990.88;6246167;23;20014;-80
2022/11/15 09:53:16;;;;;;;0.00;0.00;;;;;;;11.51;100.00;97997.13;6249775;23;20046;-80
2022/11/15 09:56:03;;;;;;;0.00;0.00;;;;;;;11.47;100.00;97996.97;6247002;23;20731;-79
2022/11/15 09:59:06;;;;;;;0.00;0.00;;;;;;;11.48;100.00;97986.84;6248866;22;20490;-79
2022/11/15 10:01:49;;;;;;;0.00;0.00;;;;;;;11.60;100.00;97984.19;6200425;23;20000;-79
2022/11/15 10:04:20;;;;;;;0.00;0.00;;;;;;;11.63;100.00;97999.16;6244525;22;20013;-79
2022/11/15 10:07:02;;;;;;;0.00;0.00;;;;;;;11.63;100.00;97980.78;6245898;23;20055;-80
2022/11/15 10:09:49;;;;;;;0.00;0.00;;;;;;;11.66;100.00;97971.09;6246305;22;20007;-78
2022/11/15 10:12:17;;;;;;;0.00;0.00;;;;;;;11.60;100.00;97956.81;6244170;23;20044;-80
2022/11/15 10:14:44;;;;;;;0.00;0.00;;;;;;;11.67;100.00;97962.56;6248762;22;20378;-80
2022/11/15 10:17:31;;;;;;;0.00;0.00;;;;;;;11.65;100.00;97948.41;6248454;23;20007;-81
2022/11/15 10:20:00;;;;;;;0.00;0.00;;;;;;;11.72;100.00;97950.59;6249437;22;20098;-80
2022/11/15 10:22:35;;;;;;;0.00;0.00;;;;;;;11.69;100.00;97935.63;6246013;22;20016;-81
2022/11/15 10:25:13;;;;;;;0.00;0.00;;;;;;;11.70;100.00;97923.56;6248967;23;20745;-77
2022/11/15 10:27:43;;;;;;;0.00;0.00;;;;;;;11.72;100.00;97928.69;6247062;22;20011;-79
2022/11/15 10:30:18;;;;;;;0.00;0.00;;;;;;;11.83;100.00;97927.16;6249053;22;20317;-80
2022/11/15 10:32:46;;;;;;;0.00;0.00;;;;;;;11.86;100.00;97945.66;6245752;22;20018;-81
2022/11/15 10:35:45;;;;;;;0.00;0.00;;;;;;;11.89;100.00;97935.97;6223426;22;20379;-79
2022/11/15 10:38:11;;;;;;;0.00;0.00;;;;;;;11.86;100.00;97909.28;6239491;22;20005;-79
2022/11/15 10:40:43;;;;;;;0.00;0.00;;;;;;;11.97;100.00;97924.19;6223760;22;20019;-79
2022/11/15 10:43:16;;;;;;;0.00;0.00;;;;;;;12.03;100.00;97914.63;6245084;22;20226;-79
2022/11/15 10:45:42;;;;;;;0.00;0.00;;;;;;;12.07;100.00;97909.25;6250664;22;20008;-79
2022/11/15 10:48:21;;;;;;;0.00;0.00;;;;;;;12.10;100.00;97913.25;6220125;23;20349;-78
2022/11/15 10:50:48;;;;;;;0.00;0.00;;;;;;;12.17;100.00;97905.31;6237515;22;20087;-78
2022/11/15 10:53:31;;;;;;;0.00;0.00;;;;;;;12.19;100.00;97897.53;6210196;23;20008;-80
2022/11/15 10:56:08;;;;;;;0.00;0.00;;;;;;;12.17;100.00;97881.44;6236810;22;20000;-81
2022/11/15 10:58:41;;;;;;;0.00;0.00;;;;;;;12.27;100.00;97895.88;6245021;22;20019;-79
2022/11/15 11:01:29;;;;;;;;;;;;;;;;;;;;;
2022/11/15 11:04:20;;;;;;;0.00;0.00;;;;;;;12.18;100.00;97915.13;6248411;23;20615;-76
2022/11/15 11:07:20;;;;;;;0.00;0.00;;;;;;;12.42;100.00;97914.38;6243105;22;20263;-79
2022/11/15 11:10:07;;;;;;;0.00;0.00;;;;;;;12.95;100.00;97887.09;6247332;22;19992;-81
2022/11/15 11:12:36;;;;;;;0.00;0.00;;;;;;;13.06;100.00;97888.25;6248747;22;20020;-78
2022/11/15 11:15:24;;;;;;;0.00;0.00;;;;;;;12.99;100.00;97889.97;6248169;22;20020;-83
2022/11/15 11:18:24;;;;;;;0.00;0.00;;;;;;;13.09;100.00;97893.03;6248538;22;20015;-79
2022/11/15 11:21:21;;;;;;;;;;;;;;;;;;;;;
2022/11/15 11:24:00;;;;;;;0.00;0.00;;;;;;;13.59;100.00;97920.44;6247131;22;20390;-78
2022/11/15 11:26:59;;;;;;;0.00;0.00;;;;;;;13.76;100.00;97925.66;6249823;22;20011;-79
2022/11/15 11:29:51;;;;;;;0.00;0.00;;;;;;;13.44;100.00;97935.69;6248936;22;20016;-80
2022/11/15 11:32:57;;;;;;;0.00;0.00;;;;;;;13.53;100.00;97919.09;6247814;22;20011;-79
2022/11/15 11:36:03;;;;;;;0.00;0.00;;;;;;;14.79;100.00;97950.03;6248390;22;20031;-79
2022/11/15 11:38:50;;;;;;;0.00;0.00;;;;;;;16.17;100.00;97947.25;6251322;22;20361;-79
2022/11/15 11:41:36;;;;;;;0.00;0.00;;;;;;;17.74;100.00;97957.75;6247151;22;20016;-80
2022/11/15 11:44:02;;;;;;;0.00;0.00;;;;;;;17.15;100.00;97966.34;6249188;23;20058;-80
2022/11/15 11:47:06;;;;;;;0.00;0.00;;;;;;;16.79;100.00;97951.91;6246382;22;20034;-80
2022/11/15 11:50:09;;;;;;;0.00;0.00;;;;;;;17.24;100.00;97966.09;6189436;23;20007;-80
2022/11/15 11:53:06;;;;;;;0.00;0.00;;;;;;;19.46;100.00;97961.53;6256114;22;20016;-80
2022/11/15 11:56:03;;;;;;;;;;;;;;;;;;;;;
2022/11/15 11:58:50;;;;;;;;;;;;;;;;;;;;;
2022/11/15 12:01:28;;;;;;;0.00;0.00;;;;;;;21.33;100.00;97978.00;6252832;22;20015;-81
2022/11/15 12:04:13;;;;;;;0.00;0.00;;;;;;;19.40;100.00;97987.22;6249737;23;20013;-79
2022/11/15 12:06:52;;;;;;;;;;;;;;;;;;;;;
2022/11/15 12:09:43;;;;;;;0.00;0.00;;;;;;;17.31;100.00;97990.28;6251430;23;20042;-80
2022/11/15 12:12:23;;;;;;;0.00;0.00;;;;;;;16.55;100.00;97998.00;6251380;23;19996;-79
2022/11/15 12:15:12;;;;;;;0.00;0.00;;;;;;;18.54;100.00;97993.53;6252043;22;19996;-78
2022/11/15 12:17:50;;;;;;;;;;;;;;;;;;;;;
2022/11/15 12:20:26;;;;;;;0.00;0.00;;;;;;;15.79;100.00;97992.13;6251668;23;20015;-79
2022/11/15 12:23:12;;;;;;;0.00;0.00;;;;;;;15.01;100.00;98009.19;6249613;23;20008;-78
2022/11/15 12:26:36;;;;;;;0.22;0.22;;;;;;;14.74;100.00;98006.09;6251627;23;20008;-80
2022/11/15 12:29:51;;;;;;;;;;;;;;;;;;;;;
2022/11/15 12:32:56;;;;;;;0.00;0.00;;;;;;;15.05;100.00;97992.75;6159601;23;20041;-79
2022/11/15 12:35:27;;;;;;;0.00;0.00;;;;;;;15.91;100.00;98007.75;6086945;23;20270;-78
2022/11/15 12:38:25;;;;;;;;;;;;;;;;;;;;;
2022/11/15 12:41:29;;;;;;;0.00;0.00;;;;;;;21.08;100.00;98019.69;6251073;22;20036;-79
2022/11/15 12:43:59;;;;;;;0.00;0.00;;;;;;;24.71;100.00;98016.03;6188983;22;20343;-80
2022/11/15 12:46:46;;;;;;;0.00;0.00;;;;;;;26.85;100.00;98025.09;6248694;23;20058;-81
2022/11/15 12:49:23;;;;;;;0.00;0.00;;;;;;;27.10;100.00;98027.31;6251566;22;20431;-77
2022/11/15 12:51:48;;;;;;;0.00;0.00;;;;;;;24.56;100.00;98032.94;6246634;22;20043;-79
2022/11/15 12:54:23;;;;;;;0.00;0.00;;;;;;;21.90;100.00;98030.03;6250427;22;20039;-78
2022/11/15 12:57:06;;;;;;;0.00;0.00;;;;;;;18.98;100.00;98031.59;6250767;23;20016;-81
2022/11/15 13:00:01;;;;;;;0.00;0.00;;;;;;;17.28;100.00;98050.59;6245808;22;20419;-80
2022/11/15 13:03:15;;;;;;;0.00;0.00;;;;;;;16.56;100.00;98035.47;6251019;22;20082;-82
2022/11/15 13:05:35;;;;;;;0.00;0.00;;;;;;;16.47;100.00;98023.88;6246733;22;19992;-81
2022/11/15 13:08:01;;;;;;;0.00;0.00;;;;;;;18.46;100.00;98041.66;6250174;22;20090;-81
2022/11/15 13:10:29;;;;;;;0.00;0.00;;;;;;;22.36;100.00;98050.59;6249939;22;20058;-81
2022/11/15 13:12:58;;;;;;;0.00;0.00;;;;;;;26.41;100.00;98053.19;6249200;23;20004;-81
2022/11/15 13:15:56;;;;;;;0.00;0.00;;;;;;;23.90;100.00;98052.84;6249400;22;20004;-81
2022/11/15 13:18:30;;;;;;;0.00;0.00;;;;;;;20.04;100.00;98028.47;6250056;22;20594;-80
2022/11/15 13:20:56;;;;;;;0.00;0.00;;;;;;;18.16;100.00;98034.16;6251430;22;20008;-80
2022/11/15 13:23:22;;;;;;;0.00;0.00;;;;;;;17.28;100.00;98025.75;6248254;22;19995;-80
2022/11/15 13:26:16;;;;;;;0.00;0.00;;;;;;;17.20;100.00;98024.03;6248771;23;20000;-80
2022/11/15 13:28:49;;;;;;;0.00;0.00;;;;;;;20.98;100.00;98020.47;6243452;23;20000;-80